createdAt,value
2022-12-09T00:01:09.862Z,7.50
2022-12-09T00:05:56.708Z,7.57
2022-12-09T00:10:45.057Z,7.13
2022-12-09T00:15:33.460Z,7.10
2022-12-09T00:20:18.603Z,6.67
2022-12-09T00:25:07.259Z,7.37
2022-12-09T00:29:54.417Z,6.70
2022-12-09T00:35:15.121Z,7.10
2022-12-09T00:40:02.697Z,7.43
2022-12-09T00:44:51.399Z,7.77
2022-12-09T00:49:39.594Z,8.60
2022-12-09T00:54:29.008Z,8.00
2022-12-09T00:59:15.842Z,8.30
2022-12-09T01:04:08.789Z,7.87
2022-12-09T01:08:53.527Z,7.70
2022-12-09T01:13:39.708Z,7.23
2022-12-09T01:18:30.732Z,8.63
2022-12-09T01:23:14.373Z,8.30
2022-12-09T01:28:21.338Z,8.40
2022-12-09T01:33:08.261Z,8.03
2022-12-09T01:38:45.691Z,7.93
2022-12-09T01:43:30.677Z,7.63
2022-12-09T01:48:49.365Z,7.83
2022-12-09T01:53:54.597Z,8.80
2022-12-09T01:58:45.501Z,7.73
2022-12-09T02:03:30.763Z,9.20
2022-12-09T02:08:24.240Z,8.33
2022-12-09T02:13:53.688Z,8.77
2022-12-09T02:18:57.166Z,8.93
2022-12-09T02:24:03.635Z,8.30
2022-12-09T02:29:39.622Z,9.03
2022-12-09T02:34:31.230Z,9.00
2022-12-09T02:39:33.001Z,9.90
2022-12-09T02:44:52.649Z,9.20
2022-12-09T02:50:01.433Z,8.03
2022-12-09T02:55:05.640Z,8.40
2022-12-09T03:05:41.418Z,9.93
2022-12-09T03:10:33.274Z,10.40
2022-12-09T03:15:19.268Z,8.67
2022-12-09T03:20:17.933Z,8.70
2022-12-09T03:25:21.984Z,9.07
2022-12-09T03:30:59.080Z,9.80
2022-12-09T03:35:45.795Z,8.63
2022-12-09T03:41:06.709Z,9.60
2022-12-09T03:46:15.219Z,9.27
2022-12-09T03:56:19.769Z,9.23
2022-12-09T04:01:12.073Z,9.40
2022-12-09T04:05:56.467Z,10.23
2022-12-09T04:10:43.729Z,9.40
2022-12-09T04:15:46.068Z,9.20
2022-12-09T04:21:09.789Z,9.83
2022-12-09T04:26:01.909Z,9.87
2022-12-09T04:31:29.232Z,9.13
2022-12-09T04:36:35.838Z,9.70
2022-12-09T04:41:24.053Z,10.87
2022-12-09T04:46:17.857Z,10.70
2022-12-09T04:51:18.888Z,10.10
2022-12-09T04:56:03.797Z,10.03
2022-12-09T05:00:52.157Z,9.93
2022-12-09T05:05:43.175Z,8.70
2022-12-09T05:10:27.339Z,9.33
2022-12-09T05:15:16.303Z,11.17
2022-12-09T05:20:04.379Z,11.87
2022-12-09T05:24:52.577Z,11.20
2022-12-09T05:29:40.112Z,10.83
2022-12-09T05:35:17.059Z,10.63
2022-12-09T05:39:47.036Z,11.50
2022-12-09T05:44:39.103Z,12.23
2022-12-09T05:49:23.123Z,12.87
2022-12-09T05:54:32.507Z,12.47
2022-12-09T05:59:16.448Z,12.37
2022-12-09T06:04:05.042Z,12.33
2022-12-09T06:08:55.811Z,12.53
2022-12-09T06:13:40.826Z,13.10
2022-12-09T06:18:26.849Z,12.97
2022-12-09T06:23:21.925Z,12.37
2022-12-09T06:28:17.915Z,12.67
2022-12-09T06:33:36.870Z,12.80
2022-12-09T06:38:58.341Z,12.20
2022-12-09T06:43:48.436Z,11.50
2022-12-09T11:25:28.190Z,12.00
2022-12-09T13:03:18.849Z,12.50
2022-12-09T13:15:26.891Z,14.27
2022-12-09T14:01:09.621Z,15.43
2022-12-09T14:12:04.866Z,14.37
2022-12-09T14:17:02.503Z,15.17
2022-12-09T14:22:34.934Z,14.30
2022-12-09T14:27:21.923Z,15.13
2022-12-09T14:32:27.482Z,14.97
2022-12-09T14:38:01.883Z,13.33
2022-12-09T14:43:02.901Z,14.63
2022-12-09T14:47:57.735Z,14.20
2022-12-09T14:53:24.671Z,20.43
2022-12-09T15:22:17.062Z,14.77
2022-12-09T15:55:26.870Z,14.57
